createdAt,value
2023-01-19T00:00:27.746Z,4.77
2023-01-19T00:02:54.920Z,4.90
2023-01-19T00:05:21.579Z,4.70
2023-01-19T00:07:48.022Z,4.73
2023-01-19T00:10:14.436Z,4.00
2023-01-19T00:12:40.860Z,4.97
2023-01-19T00:15:08.032Z,4.33
2023-01-19T00:17:34.438Z,5.07
2023-01-19T00:20:00.850Z,4.37
2023-01-19T00:22:27.261Z,4.93
2023-01-19T00:24:53.683Z,5.03
2023-01-19T00:27:20.100Z,5.43
2023-01-19T00:29:46.577Z,4.93
2023-01-19T00:32:13.002Z,4.50
2023-01-19T00:34:42.596Z,4.90
2023-01-19T00:37:09.618Z,4.30
2023-01-19T00:39:36.030Z,4.30
2023-01-19T00:42:20.869Z,4.70
2023-01-19T00:44:47.284Z,4.57
2023-01-19T00:47:13.678Z,4.80
2023-01-19T00:49:40.137Z,4.47
2023-01-19T00:52:06.557Z,4.50
2023-01-19T00:54:33.000Z,4.80
2023-01-19T00:56:59.445Z,4.63
2023-01-19T00:59:25.868Z,4.67
2023-01-19T01:01:52.415Z,4.87
2023-01-19T01:04:18.973Z,4.77
2023-01-19T01:06:45.428Z,4.80
2023-01-19T01:09:12.053Z,5.40
2023-01-19T01:11:39.940Z,5.20
2023-01-19T01:14:06.439Z,5.17
2023-01-19T01:16:32.968Z,5.00
2023-01-19T01:18:59.523Z,4.50
2023-01-19T01:21:25.973Z,5.23
2023-01-19T01:23:52.385Z,4.87
2023-01-19T01:26:18.794Z,4.93
2023-01-19T01:28:45.229Z,4.47
2023-01-19T01:31:11.684Z,4.93
2023-01-19T01:33:40.653Z,5.07
2023-01-19T01:36:08.928Z,5.10
2023-01-19T01:38:35.361Z,5.40
2023-01-19T01:41:01.789Z,4.83
2023-01-19T01:43:42.695Z,4.80
2023-01-19T01:46:09.330Z,5.13
2023-01-19T01:48:36.509Z,4.17
2023-01-19T01:51:24.749Z,5.67
2023-01-19T01:54:12.083Z,5.00
2023-01-19T01:56:44.656Z,4.80
2023-01-19T01:59:18.040Z,5.23
2023-01-19T02:02:03.124Z,4.90
2023-01-19T02:04:30.123Z,4.97
2023-01-19T02:07:15.133Z,4.97
2023-01-19T02:10:00.142Z,5.40
2023-01-19T02:12:45.918Z,4.73
2023-01-19T02:15:17.725Z,5.07
2023-01-19T02:17:44.327Z,4.87
2023-01-19T02:20:11.255Z,4.30
2023-01-19T02:22:45.584Z,5.60
2023-01-19T02:25:12.115Z,5.67
2023-01-19T02:27:39.496Z,5.00
2023-01-19T02:30:07.057Z,5.60
2023-01-19T02:32:33.595Z,5.03
2023-01-19T02:35:00.063Z,5.43
2023-01-19T02:37:26.647Z,5.37
2023-01-19T02:39:56.024Z,5.63
2023-01-19T02:42:44.452Z,5.60
2023-01-19T02:45:12.674Z,5.30
2023-01-19T02:47:49.782Z,4.93
2023-01-19T02:50:41.790Z,5.33
2023-01-19T02:53:45.973Z,5.07
2023-01-19T02:56:36.294Z,5.30
2023-01-19T02:59:37.132Z,5.10
2023-01-19T03:02:23.991Z,5.43
2023-01-19T03:05:26.119Z,5.17
2023-01-19T03:08:15.704Z,5.20
2023-01-19T03:10:54.489Z,4.93
2023-01-19T03:13:42.707Z,5.17
2023-01-19T03:16:12.181Z,4.70
2023-01-19T03:18:42.701Z,4.80
2023-01-19T03:21:10.323Z,5.50
2023-01-19T03:23:38.816Z,5.40
2023-01-19T03:26:05.984Z,4.80
2023-01-19T03:28:33.573Z,5.40
2023-01-19T03:31:05.433Z,5.17
2023-01-19T03:33:33.025Z,4.83
2023-01-19T03:36:10.489Z,4.93
2023-01-19T03:38:38.071Z,5.43
2023-01-19T03:41:08.223Z,5.20
2023-01-19T03:43:35.607Z,6.33
2023-01-19T03:46:04.104Z,5.10
2023-01-19T03:48:32.371Z,4.90
2023-01-19T03:51:03.620Z,5.07
2023-01-19T03:53:30.022Z,5.27
2023-01-19T03:55:57.003Z,5.00
2023-01-19T03:58:23.487Z,5.10
2023-01-19T04:00:50.012Z,5.10
2023-01-19T04:03:18.150Z,5.20
2023-01-19T04:05:44.608Z,5.23
2023-01-19T04:08:11.884Z,4.87
2023-01-19T04:10:38.848Z,4.97
2023-01-19T04:13:05.635Z,5.37
2023-01-19T04:15:32.624Z,5.40
2023-01-19T04:18:00.588Z,5.30
2023-01-19T04:20:28.172Z,5.30
2023-01-19T04:22:56.068Z,5.70
2023-01-19T04:25:22.478Z,5.03
2023-01-19T04:27:52.275Z,4.57
2023-01-19T04:30:19.050Z,4.50
2023-01-19T04:32:48.484Z,4.87
2023-01-19T04:35:14.980Z,4.83
2023-01-19T04:37:41.429Z,4.63
2023-01-19T04:40:08.524Z,5.30
2023-01-19T04:42:34.964Z,5.13
2023-01-19T04:45:01.358Z,4.73
2023-01-19T04:47:27.775Z,5.33
2023-01-19T04:49:54.223Z,4.20
2023-01-19T04:52:20.644Z,4.93
2023-01-19T04:54:47.665Z,5.13
2023-01-19T04:57:14.107Z,5.63
2023-01-19T04:59:40.556Z,4.87
2023-01-19T05:02:07.182Z,4.70
2023-01-19T05:04:33.721Z,4.77
2023-01-19T05:07:00.114Z,4.90
2023-01-19T05:09:27.277Z,4.97
2023-01-19T05:11:53.764Z,4.57
2023-01-19T05:14:20.259Z,4.17
2023-01-19T05:16:46.677Z,4.83
2023-01-19T05:19:13.133Z,4.93
2023-01-19T05:21:39.562Z,4.67
2023-01-19T05:24:06.302Z,4.47
2023-01-19T05:26:32.815Z,4.33
2023-01-19T05:28:59.221Z,4.47
2023-01-19T05:31:25.782Z,4.80
2023-01-19T05:33:52.249Z,4.83
2023-01-19T05:36:18.651Z,4.57
2023-01-19T05:38:45.075Z,5.17
2023-01-19T05:41:11.468Z,4.37
2023-01-19T05:43:37.909Z,5.70
2023-01-19T05:46:05.347Z,4.50
2023-01-19T05:48:31.791Z,5.30
2023-01-19T05:50:59.163Z,4.87
2023-01-19T05:53:25.848Z,4.63
2023-01-19T05:55:52.323Z,5.20
2023-01-19T05:58:18.726Z,5.47
2023-01-19T06:00:45.215Z,4.77
2023-01-19T06:03:11.854Z,5.03
2023-01-19T06:05:39.439Z,4.70
2023-01-19T06:08:06.030Z,5.30
2023-01-19T06:10:32.448Z,5.10
2023-01-19T06:12:59.236Z,4.73
2023-01-19T06:15:25.871Z,5.23
2023-01-19T06:17:52.274Z,5.33
2023-01-19T06:20:18.674Z,4.80
2023-01-19T06:22:45.069Z,5.50
2023-01-19T06:25:11.934Z,5.13
2023-01-19T06:27:39.787Z,5.13
2023-01-19T06:30:06.782Z,5.60
2023-01-19T06:32:33.205Z,6.30
2023-01-19T06:34:59.610Z,5.83
2023-01-19T06:37:27.256Z,6.67
2023-01-19T06:39:53.668Z,5.70
2023-01-19T06:42:20.096Z,6.47
2023-01-19T06:44:47.994Z,6.30
2023-01-19T06:47:16.375Z,6.30
2023-01-19T06:49:43.271Z,5.50
2023-01-19T06:52:11.440Z,5.73
2023-01-19T06:54:37.840Z,5.73
2023-01-19T06:57:04.459Z,5.37
2023-01-19T06:59:31.704Z,5.53
2023-01-19T07:01:59.012Z,6.10
2023-01-19T07:04:25.597Z,5.80
2023-01-19T07:06:51.995Z,8.50
2023-01-19T07:09:20.335Z,10.50
2023-01-19T07:11:47.268Z,9.90
2023-01-19T07:14:14.011Z,7.63
2023-01-19T07:16:40.534Z,5.60
2023-01-19T07:19:10.605Z,5.90
2023-01-19T07:21:37.133Z,5.43
2023-01-19T07:24:03.629Z,5.67
2023-01-19T07:26:30.826Z,5.87
2023-01-19T07:28:57.240Z,6.20
2023-01-19T07:31:23.747Z,6.17
2023-01-19T07:33:50.183Z,5.60
2023-01-19T07:36:16.579Z,5.67
2023-01-19T07:38:43.015Z,6.63
2023-01-19T07:41:10.224Z,5.90
2023-01-19T07:43:36.670Z,6.20
2023-01-19T07:46:05.514Z,5.70
2023-01-19T07:48:32.016Z,5.93
2023-01-19T07:51:05.359Z,6.20
2023-01-19T07:53:32.287Z,6.90
2023-01-19T07:55:58.752Z,6.50
2023-01-19T07:58:26.397Z,5.83
2023-01-19T08:00:53.323Z,6.50
2023-01-19T08:03:20.226Z,6.10
2023-01-19T08:05:50.307Z,6.40
2023-01-19T08:08:16.740Z,6.30
2023-01-19T08:10:43.135Z,6.53
2023-01-19T08:13:09.579Z,6.53
2023-01-19T08:15:35.984Z,6.50
2023-01-19T08:18:05.644Z,6.70
2023-01-19T08:20:33.169Z,7.13
2023-01-19T08:23:00.253Z,6.37
2023-01-19T08:25:32.399Z,6.77
2023-01-19T08:27:58.934Z,7.60
2023-01-19T08:30:26.784Z,7.43
2023-01-19T08:32:54.591Z,7.03
2023-01-19T08:35:22.062Z,8.07
2023-01-19T08:37:48.470Z,6.67
2023-01-19T08:40:14.975Z,7.70
2023-01-19T08:42:41.396Z,6.40
2023-01-19T08:45:09.237Z,6.30
2023-01-19T08:47:35.708Z,6.57
2023-01-19T08:50:02.251Z,6.67
2023-01-19T08:52:29.334Z,6.60
2023-01-19T08:54:55.844Z,6.17
2023-01-19T08:57:22.259Z,6.63
2023-01-19T08:59:48.707Z,7.13
2023-01-19T09:02:15.236Z,6.53
2023-01-19T09:04:41.692Z,6.10
2023-01-19T09:07:08.107Z,7.17
2023-01-19T09:09:37.756Z,7.00
2023-01-19T09:12:04.350Z,6.80
2023-01-19T09:14:30.808Z,6.20
2023-01-19T09:16:57.326Z,5.60
2023-01-19T09:19:23.740Z,5.57
2023-01-19T09:21:50.922Z,5.70
2023-01-19T09:24:17.306Z,6.00
2023-01-19T09:26:43.754Z,5.50
2023-01-19T09:29:10.181Z,5.40
2023-01-19T09:31:37.336Z,5.60
2023-01-19T09:34:03.755Z,5.60
2023-01-19T09:36:30.267Z,5.97
2023-01-19T09:38:56.692Z,6.23
2023-01-19T09:41:25.006Z,6.03
2023-01-19T09:44:00.134Z,5.60
2023-01-19T09:46:39.621Z,5.70
2023-01-19T09:49:13.315Z,6.13
2023-01-19T09:51:43.674Z,5.33
2023-01-19T09:54:17.260Z,5.50
2023-01-19T09:56:45.223Z,5.13
2023-01-19T09:59:17.422Z,5.60
2023-01-19T10:01:55.954Z,6.03
2023-01-19T10:04:35.208Z,5.57
2023-01-19T10:07:17.058Z,5.93
2023-01-19T10:10:05.799Z,6.23
2023-01-19T10:13:10.614Z,5.83
2023-01-19T10:15:45.998Z,5.80
2023-01-19T10:18:31.419Z,5.20
2023-01-19T10:21:43.323Z,5.63
2023-01-19T10:24:45.693Z,5.90
2023-01-19T10:27:20.782Z,5.83
2023-01-19T10:29:47.285Z,5.97
2023-01-19T10:32:21.195Z,5.57
2023-01-19T10:34:49.164Z,6.20
2023-01-19T10:37:30.597Z,5.40
2023-01-19T10:40:22.993Z,5.50
2023-01-19T10:42:49.492Z,5.90
2023-01-19T10:45:17.411Z,5.83
2023-01-19T10:47:44.618Z,5.67
2023-01-19T10:50:34.761Z,5.50
2023-01-19T10:53:06.070Z,5.53
2023-01-19T10:55:41.416Z,6.37
2023-01-19T10:58:30.464Z,5.93
2023-01-19T11:01:13.433Z,5.40
2023-01-19T11:03:40.020Z,5.70
2023-01-19T11:06:15.570Z,5.70
2023-01-19T11:08:46.683Z,5.73
2023-01-19T11:11:13.263Z,5.90
2023-01-19T11:13:40.530Z,5.70
2023-01-19T11:16:16.114Z,5.83
2023-01-19T11:18:43.180Z,5.83
2023-01-19T11:21:14.625Z,5.80
2023-01-19T11:23:45.361Z,5.77
2023-01-19T11:26:16.753Z,5.87
2023-01-19T11:28:47.800Z,5.80
2023-01-19T11:31:14.346Z,5.37
2023-01-19T11:33:49.664Z,5.97
2023-01-19T11:36:22.147Z,5.87
2023-01-19T11:38:54.953Z,6.00
2023-01-19T11:41:26.729Z,5.83
2023-01-19T11:43:55.164Z,5.73
2023-01-19T11:46:24.252Z,6.50
2023-01-19T11:49:02.108Z,5.73
2023-01-19T11:51:34.648Z,5.73
2023-01-19T11:54:03.072Z,5.80
2023-01-19T11:56:29.546Z,4.93
2023-01-19T11:58:56.349Z,5.03
2023-01-19T12:01:24.815Z,4.90
2023-01-19T12:04:02.701Z,5.73
2023-01-19T12:06:44.751Z,5.50
2023-01-19T12:09:17.316Z,5.10
2023-01-19T12:11:51.036Z,5.53
2023-01-19T12:14:22.885Z,5.43
2023-01-19T12:16:51.328Z,5.27
2023-01-19T12:19:22.418Z,4.70
2023-01-19T12:21:49.253Z,4.80
2023-01-19T12:24:29.733Z,4.90
2023-01-19T12:26:57.619Z,5.00
2023-01-19T12:29:26.376Z,4.63
2023-01-19T12:32:19.092Z,4.80
2023-01-19T12:34:49.974Z,4.60
2023-01-19T12:37:31.999Z,4.33
2023-01-19T12:40:00.859Z,5.00
2023-01-19T12:42:27.397Z,4.50
2023-01-19T12:45:14.007Z,4.67
2023-01-19T12:47:40.554Z,4.27
2023-01-19T12:50:14.095Z,4.20
2023-01-19T12:52:47.829Z,4.37
2023-01-19T12:55:14.187Z,4.63
2023-01-19T12:57:41.375Z,4.40
2023-01-19T13:00:22.938Z,4.80
2023-01-19T13:02:52.484Z,4.50
2023-01-19T13:05:24.979Z,4.60
2023-01-19T13:08:04.834Z,4.77
2023-01-19T13:10:59.321Z,4.90
2023-01-19T13:13:28.680Z,4.63
2023-01-19T13:16:21.149Z,4.80
2023-01-19T13:18:51.580Z,4.43
2023-01-19T13:21:44.683Z,4.47
2023-01-19T13:24:16.477Z,4.33
2023-01-19T13:27:03.516Z,4.77
2023-01-19T13:29:35.419Z,4.50
2023-01-19T13:32:11.741Z,4.40
2023-01-19T13:34:45.615Z,4.43
2023-01-19T13:37:17.771Z,4.70
2023-01-19T13:39:46.959Z,4.00
2023-01-19T13:42:17.223Z,5.20
2023-01-19T13:44:52.307Z,4.70
2023-01-19T13:47:22.503Z,4.93
2023-01-19T13:49:51.537Z,5.67
2023-01-19T13:52:23.185Z,4.97
2023-01-19T13:54:53.580Z,4.80
2023-01-19T13:57:31.571Z,4.50
2023-01-19T14:00:25.483Z,5.20
2023-01-19T14:02:56.192Z,4.43
2023-01-19T14:05:36.808Z,4.80
2023-01-19T14:08:14.938Z,4.07
2023-01-19T14:10:53.549Z,4.67
2023-01-19T14:13:44.731Z,4.63
2023-01-19T14:16:16.059Z,4.80
2023-01-19T14:18:42.842Z,4.87
2023-01-19T14:21:16.237Z,4.43
2023-01-19T14:24:05.577Z,5.10
2023-01-19T14:26:46.970Z,5.43
2023-01-19T14:29:29.307Z,5.10
2023-01-19T14:32:01.686Z,4.63
2023-01-19T14:34:31.932Z,5.07
2023-01-19T14:36:58.897Z,4.67
2023-01-19T14:39:28.087Z,5.03
2023-01-19T14:41:55.876Z,4.90
2023-01-19T14:44:37.660Z,4.93
2023-01-19T14:47:05.788Z,5.17
2023-01-19T14:49:40.513Z,4.93
2023-01-19T14:52:22.618Z,4.83
2023-01-19T14:54:49.519Z,4.50
2023-01-19T14:57:18.615Z,4.20
2023-01-19T14:59:48.450Z,4.70
2023-01-19T15:02:15.325Z,4.83
2023-01-19T15:04:42.065Z,5.03
2023-01-19T15:07:16.730Z,4.77
2023-01-19T15:09:43.205Z,4.83
2023-01-19T15:12:12.023Z,4.30
2023-01-19T15:14:42.027Z,4.87
2023-01-19T15:17:17.507Z,5.37
2023-01-19T15:19:44.990Z,4.60
2023-01-19T15:22:12.953Z,4.30
2023-01-19T15:24:40.930Z,4.30
2023-01-19T15:27:13.439Z,4.47
2023-01-19T15:29:40.399Z,4.43
2023-01-19T15:32:12.147Z,4.33
2023-01-19T15:34:38.610Z,4.70
2023-01-19T15:37:05.031Z,5.53
2023-01-19T15:39:32.145Z,15.57
2023-01-19T15:41:58.613Z,8.70
2023-01-19T15:44:25.081Z,5.40
2023-01-19T15:46:53.853Z,4.70
2023-01-19T15:49:21.051Z,3.50
2023-01-19T15:51:47.487Z,3.50
2023-01-19T15:54:16.763Z,3.90
2023-01-19T15:56:43.212Z,2.90
2023-01-19T15:59:09.641Z,3.20
2023-01-19T16:01:36.273Z,2.77
2023-01-19T16:04:05.429Z,2.90
2023-01-19T16:06:32.504Z,3.03
2023-01-19T16:09:01.256Z,3.40
2023-01-19T16:11:32.862Z,4.30
2023-01-19T16:13:59.580Z,3.50
2023-01-19T16:16:28.141Z,3.00
2023-01-19T16:18:55.157Z,3.13
2023-01-19T16:21:22.176Z,2.87
2023-01-19T16:23:48.706Z,2.50
2023-01-19T16:26:30.766Z,2.40
2023-01-19T16:29:01.767Z,1.67
2023-01-19T16:31:29.095Z,1.70
2023-01-19T16:33:55.777Z,1.53
2023-01-19T16:36:26.374Z,1.77
2023-01-19T16:39:10.921Z,1.40
2023-01-19T16:41:37.543Z,1.60
2023-01-19T16:44:04.334Z,1.70
2023-01-19T16:46:36.314Z,1.60
2023-01-19T16:49:09.710Z,1.90
2023-01-19T16:51:36.486Z,1.73
2023-01-19T16:54:03.372Z,1.93
2023-01-19T16:56:29.984Z,2.00
2023-01-19T16:58:57.598Z,1.80
2023-01-19T17:01:25.771Z,2.03
2023-01-19T17:03:52.693Z,2.30
2023-01-19T17:06:22.875Z,2.67
2023-01-19T17:08:49.828Z,3.03
2023-01-19T17:11:22.691Z,2.53
2023-01-19T17:13:54.616Z,3.37
2023-01-19T17:16:22.225Z,3.30
2023-01-19T17:18:48.829Z,3.00
2023-01-19T17:21:18.013Z,2.67
2023-01-19T17:23:48.762Z,3.10
2023-01-19T17:26:16.404Z,2.90
2023-01-19T17:28:43.540Z,2.87
2023-01-19T17:31:12.861Z,2.90
2023-01-19T17:33:40.007Z,3.33
2023-01-19T17:36:09.164Z,3.00
2023-01-19T17:38:36.471Z,2.80
2023-01-19T17:41:37.392Z,3.30
2023-01-19T17:44:05.399Z,3.93
2023-01-19T17:46:35.776Z,4.10
2023-01-19T17:49:03.711Z,3.80
2023-01-19T17:51:31.149Z,3.77
2023-01-19T17:53:58.557Z,3.90
2023-01-19T17:56:29.459Z,4.17
2023-01-19T17:58:56.993Z,4.20
2023-01-19T18:01:26.431Z,3.93
2023-01-19T18:03:53.172Z,4.70
2023-01-19T18:06:20.114Z,6.37
2023-01-19T18:08:47.567Z,5.83
2023-01-19T18:11:15.553Z,5.53
2023-01-19T18:13:43.991Z,5.20
2023-01-19T18:16:12.841Z,4.37
2023-01-19T18:18:40.544Z,4.83
2023-01-19T18:21:09.505Z,4.97
2023-01-19T18:23:36.550Z,5.07
2023-01-19T18:26:08.846Z,4.97
2023-01-19T18:28:35.697Z,5.20
2023-01-19T18:31:03.182Z,5.00
2023-01-19T18:33:31.408Z,5.67
2023-01-19T18:35:57.986Z,5.57
2023-01-19T18:38:24.536Z,5.47
2023-01-19T18:41:01.285Z,5.53
2023-01-19T18:43:27.787Z,5.87
2023-01-19T18:45:54.319Z,5.93
2023-01-19T18:48:21.111Z,5.37
2023-01-19T18:50:47.912Z,5.97
2023-01-19T18:53:14.388Z,5.43
2023-01-19T18:55:40.973Z,6.53
2023-01-19T18:58:08.819Z,5.70
2023-01-19T19:00:35.419Z,5.63
2023-01-19T19:03:01.975Z,5.77
2023-01-19T19:05:28.580Z,5.77
2023-01-19T19:07:55.116Z,5.50
2023-01-19T19:10:21.754Z,5.80
2023-01-19T19:12:48.316Z,4.93
2023-01-19T19:15:14.847Z,5.97
2023-01-19T19:17:41.305Z,5.33
2023-01-19T19:20:08.536Z,5.00
2023-01-19T19:22:35.096Z,5.50
2023-01-19T19:25:01.640Z,5.43
2023-01-19T19:27:28.188Z,5.07
2023-01-19T19:29:54.858Z,4.87
2023-01-19T19:32:21.540Z,5.53
2023-01-19T19:34:52.752Z,5.27
2023-01-19T19:37:22.551Z,5.67
2023-01-19T19:39:49.097Z,6.10
2023-01-19T19:42:15.606Z,6.40
2023-01-19T19:44:42.162Z,6.30
2023-01-19T19:47:08.715Z,6.63
2023-01-19T19:49:35.835Z,5.83
2023-01-19T19:52:02.405Z,6.27
2023-01-19T19:54:29.038Z,6.50
2023-01-19T19:56:55.730Z,6.50
2023-01-19T19:59:22.280Z,6.17
2023-01-19T20:01:49.945Z,6.37
2023-01-19T20:04:20.037Z,6.67
2023-01-19T20:06:48.304Z,6.50
2023-01-19T20:09:16.207Z,5.73
2023-01-19T20:11:44.336Z,6.23
2023-01-19T20:14:12.133Z,6.30
2023-01-19T20:16:39.132Z,5.53
2023-01-19T20:19:06.317Z,5.87
2023-01-19T20:21:35.981Z,5.57
2023-01-19T20:24:08.578Z,5.90
2023-01-19T20:26:37.049Z,5.77
2023-01-19T20:29:06.885Z,5.23
2023-01-19T20:31:36.250Z,5.47
2023-01-19T20:34:05.595Z,5.90
2023-01-19T20:36:32.555Z,6.30
2023-01-19T20:38:59.527Z,5.97
2023-01-19T20:41:27.203Z,7.00
2023-01-19T20:43:55.016Z,6.30
2023-01-19T20:46:21.572Z,6.13
2023-01-19T20:48:52.946Z,6.00
2023-01-19T20:51:20.392Z,6.00
2023-01-19T20:53:47.963Z,7.37
2023-01-19T20:56:15.080Z,7.23
2023-01-19T20:58:42.275Z,7.67
2023-01-19T21:01:13.238Z,7.97
2023-01-19T21:03:40.072Z,7.80
2023-01-19T21:06:06.942Z,8.03
2023-01-19T21:08:33.559Z,7.83
2023-01-19T21:11:00.234Z,7.97
2023-01-19T21:13:26.898Z,7.60
2023-01-19T21:15:53.542Z,8.43
2023-01-19T21:18:20.091Z,8.43
2023-01-19T21:20:49.571Z,8.40
2023-01-19T21:23:16.100Z,8.70
2023-01-19T21:25:53.567Z,8.83
2023-01-19T21:28:20.327Z,9.47
2023-01-19T21:30:46.992Z,9.60
2023-01-19T21:33:13.773Z,8.67
2023-01-19T21:35:40.395Z,9.40
2023-01-19T21:38:06.994Z,9.13
2023-01-19T21:40:33.552Z,9.97
2023-01-19T21:43:00.216Z,9.37
2023-01-19T21:45:26.813Z,9.33
2023-01-19T21:47:53.348Z,9.33
2023-01-19T21:50:19.829Z,10.17
2023-01-19T21:52:46.405Z,9.37
2023-01-19T21:55:13.087Z,9.80
2023-01-19T21:57:39.675Z,9.90
2023-01-19T22:00:10.267Z,10.90
2023-01-19T22:02:39.090Z,9.33
2023-01-19T22:05:06.623Z,10.43
2023-01-19T22:07:33.202Z,10.03
2023-01-19T22:09:59.761Z,10.00
2023-01-19T22:12:26.383Z,9.77
2023-01-19T22:14:53.207Z,10.73
2023-01-19T22:17:19.725Z,9.80
2023-01-19T22:19:46.292Z,10.63
2023-01-19T22:22:12.813Z,10.87
2023-01-19T22:24:39.523Z,10.70
2023-01-19T22:27:06.151Z,11.23
2023-01-19T22:29:32.691Z,10.20
2023-01-19T22:31:59.226Z,10.60
2023-01-19T22:34:25.781Z,11.30
2023-01-19T22:36:52.302Z,11.27
2023-01-19T22:39:18.822Z,10.80
2023-01-19T22:41:46.739Z,11.50
2023-01-19T22:44:15.795Z,11.47
2023-01-19T22:46:42.299Z,12.10
2023-01-19T22:49:10.983Z,11.20
2023-01-19T22:51:37.553Z,11.17
2023-01-19T22:54:04.577Z,11.33
2023-01-19T22:56:33.150Z,11.03
2023-01-19T22:59:00.108Z,11.30
2023-01-19T23:01:33.655Z,11.23
2023-01-19T23:04:01.726Z,11.20
2023-01-19T23:06:30.517Z,12.57
2023-01-19T23:09:02.644Z,12.40
2023-01-19T23:11:37.337Z,11.73
2023-01-19T23:14:05.079Z,11.93
2023-01-19T23:16:31.591Z,12.03
2023-01-19T23:18:58.537Z,12.33
2023-01-19T23:21:27.677Z,11.43
2023-01-19T23:23:55.662Z,11.97
2023-01-19T23:26:23.517Z,12.53
2023-01-19T23:29:02.495Z,11.10
2023-01-19T23:31:31.189Z,11.53
2023-01-19T23:34:00.183Z,11.13
2023-01-19T23:36:28.143Z,12.67
2023-01-19T23:38:59.884Z,12.00
2023-01-19T23:41:28.866Z,12.57
2023-01-19T23:43:55.361Z,12.10
2023-01-19T23:46:21.932Z,11.47
2023-01-19T23:48:48.841Z,11.37
2023-01-19T23:51:21.060Z,10.70
2023-01-19T23:53:48.031Z,11.63
2023-01-19T23:56:26.201Z,11.87
2023-01-19T23:58:54.847Z,11.13
